createdAt,value
2022-08-26T00:02:01.239Z,99602.81
2022-08-26T00:04:31.387Z,99597.77
2022-08-26T00:07:00.889Z,99599.91
2022-08-26T00:09:29.710Z,99599.88
2022-08-26T00:11:58.221Z,99598.66
2022-08-26T00:14:31.029Z,99597.23
2022-08-26T00:17:00.475Z,99594.98
2022-08-26T00:19:29.115Z,99595.39
2022-08-26T00:21:57.650Z,99592.75
2022-08-26T00:24:26.197Z,99592.49
2022-08-26T00:26:54.773Z,99591.04
2022-08-26T00:29:23.260Z,99587.53
2022-08-26T00:31:51.853Z,99590.01
2022-08-26T00:34:20.337Z,99587.70
2022-08-26T00:36:51.805Z,99584.81
2022-08-26T00:39:21.473Z,99588.86
2022-08-26T00:41:50.049Z,99594.64
2022-08-26T00:44:19.043Z,99592.35
2022-08-26T00:46:51.951Z,99592.09
2022-08-26T00:49:28.500Z,99588.33
2022-08-26T00:52:02.898Z,99589.73
2022-08-26T00:54:37.282Z,99591.14
2022-08-26T00:57:16.282Z,99592.67
2022-08-26T00:59:47.711Z,99592.11
2022-08-26T01:02:20.916Z,99590.51
2022-08-26T01:04:55.459Z,99591.92
2022-08-26T01:07:26.150Z,99590.52
2022-08-26T01:09:55.405Z,99592.19
2022-08-26T01:12:25.122Z,99589.08
2022-08-26T01:14:54.928Z,99591.38
2022-08-26T01:17:23.572Z,99589.70
2022-08-26T01:19:56.715Z,99588.06
2022-08-26T01:22:33.741Z,99589.58
2022-08-26T01:25:04.459Z,99592.91
2022-08-26T01:27:36.138Z,99590.86
2022-08-26T01:30:06.373Z,99589.25
2022-08-26T01:32:35.636Z,99588.46
2022-08-26T01:35:09.271Z,99586.33
2022-08-26T01:37:40.517Z,99589.34
2022-08-26T01:40:14.223Z,99587.23
2022-08-26T01:42:46.441Z,99587.36
2022-08-26T01:45:19.705Z,99587.67
2022-08-26T01:47:57.012Z,99588.02
2022-08-26T01:50:30.217Z,99585.59
2022-08-26T01:53:02.542Z,99586.20
2022-08-26T01:55:34.072Z,99588.17
2022-08-26T01:58:07.810Z,99589.29
2022-08-26T02:00:37.819Z,99592.30
2022-08-26T02:03:17.111Z,99592.88
2022-08-26T02:05:51.276Z,99593.20
2022-08-26T02:08:24.680Z,99591.59
2022-08-26T02:10:55.213Z,99588.28
2022-08-26T02:13:26.059Z,99589.42
2022-08-26T02:15:56.179Z,99585.16
2022-08-26T02:18:27.874Z,99582.65
2022-08-26T02:20:57.352Z,99580.27
2022-08-26T02:23:26.125Z,99579.81
2022-08-26T02:26:00.184Z,99580.14
2022-08-26T02:28:34.205Z,99576.61
2022-08-26T02:31:03.481Z,99574.38
2022-08-26T02:33:33.209Z,99570.21
2022-08-26T02:36:02.150Z,99571.87
2022-08-26T02:38:32.748Z,99568.77
2022-08-26T02:41:02.313Z,99567.94
2022-08-26T02:43:31.441Z,99567.41
2022-08-26T02:46:02.396Z,99565.63
2022-08-26T02:48:31.367Z,99566.24
2022-08-26T02:51:01.114Z,99566.20
2022-08-26T02:53:31.812Z,99564.20
2022-08-26T02:56:00.836Z,99567.96
2022-08-26T02:58:30.021Z,99564.98
2022-08-26T03:00:58.562Z,99564.78
2022-08-26T03:03:27.321Z,99563.73
2022-08-26T03:05:56.426Z,99558.98
2022-08-26T03:08:25.028Z,99559.59
2022-08-26T03:10:54.034Z,99560.73
2022-08-26T03:13:22.606Z,99554.98
2022-08-26T03:15:51.273Z,99555.31
2022-08-26T03:18:20.093Z,99552.94
2022-08-26T03:20:49.201Z,99554.58
2022-08-26T03:23:18.568Z,99552.98
2022-08-26T03:25:50.436Z,99554.33
2022-08-26T03:28:19.643Z,99551.41
2022-08-26T03:30:48.643Z,99549.56
2022-08-26T03:33:18.473Z,99556.30
2022-08-26T03:35:47.665Z,99554.30
2022-08-26T03:38:19.969Z,99556.36
2022-08-26T03:40:48.693Z,99560.17
2022-08-26T03:43:19.117Z,99554.55
2022-08-26T03:45:47.683Z,99558.83
2022-08-26T03:48:16.123Z,99561.89
2022-08-26T03:50:44.850Z,99562.90
2022-08-26T03:53:13.587Z,99561.48
2022-08-26T03:55:42.344Z,99560.27
2022-08-26T03:58:12.000Z,99561.34
2022-08-26T04:00:40.627Z,99564.44
2022-08-26T04:03:11.161Z,99565.77
2022-08-26T04:05:41.795Z,99563.13
2022-08-26T04:08:10.381Z,99568.41
2022-08-26T04:10:39.097Z,99565.80
2022-08-26T04:13:07.780Z,99565.38
2022-08-26T04:15:36.500Z,99568.41
2022-08-26T04:18:05.430Z,99566.95
2022-08-26T04:20:34.113Z,99560.45
2022-08-26T04:23:02.679Z,99560.95
2022-08-26T04:25:31.611Z,99562.01
2022-08-26T04:28:00.611Z,99558.98
2022-08-26T04:30:29.249Z,99560.52
2022-08-26T04:32:58.287Z,99561.19
2022-08-26T04:35:26.727Z,99567.02
2022-08-26T04:37:55.402Z,99562.78
2022-08-26T04:40:26.864Z,99564.30
2022-08-26T04:42:55.796Z,99563.86
2022-08-26T04:45:25.075Z,99560.38
2022-08-26T04:47:55.726Z,99560.58
2022-08-26T04:50:25.626Z,99557.59
2022-08-26T04:52:55.558Z,99555.53
2022-08-26T04:55:38.253Z,99556.14
2022-08-26T04:58:08.795Z,99558.20
2022-08-26T05:00:39.189Z,99557.80
2022-08-26T05:03:10.313Z,99558.51
2022-08-26T05:05:41.961Z,99558.34
2022-08-26T05:08:11.807Z,99561.19
2022-08-26T05:10:42.191Z,99556.88
2022-08-26T05:13:15.743Z,99560.26
2022-08-26T05:15:45.432Z,99564.02
2022-08-26T05:18:15.980Z,99563.73
2022-08-26T05:20:54.018Z,99567.83
2022-08-26T05:23:24.282Z,99570.73
2022-08-26T05:25:59.364Z,99574.66
2022-08-26T05:28:30.199Z,99576.88
2022-08-26T05:30:59.005Z,99576.38
2022-08-26T05:33:28.781Z,99579.91
2022-08-26T05:35:57.350Z,99578.00
2022-08-26T05:38:26.816Z,99574.80
2022-08-26T05:40:59.339Z,99576.80
2022-08-26T05:43:28.416Z,99576.64
2022-08-26T05:46:06.048Z,99572.15
2022-08-26T05:48:34.776Z,99578.02
2022-08-26T05:51:05.937Z,99576.83
2022-08-26T05:53:35.150Z,99573.70
2022-08-26T05:56:07.011Z,99574.64
2022-08-26T05:58:38.513Z,99565.48
2022-08-26T06:01:10.103Z,99565.02
2022-08-26T06:03:43.873Z,99562.71
2022-08-26T06:06:14.807Z,99565.95
2022-08-26T06:08:49.642Z,99563.96
2022-08-26T06:11:20.037Z,99561.91
2022-08-26T06:13:49.129Z,99559.90
2022-08-26T06:16:22.712Z,99565.72
2022-08-26T06:18:54.029Z,99561.87
2022-08-26T06:21:25.058Z,99561.64
2022-08-26T06:24:13.998Z,99556.52
2022-08-26T06:26:49.755Z,99560.77
2022-08-26T06:29:24.664Z,99558.44
2022-08-26T06:31:56.132Z,99562.92
2022-08-26T06:34:29.642Z,99564.02
2022-08-26T06:37:01.635Z,99558.80
2022-08-26T06:39:31.630Z,99560.80
2022-08-26T06:42:02.682Z,99560.45
2022-08-26T06:44:35.473Z,99561.44
2022-08-26T06:47:04.519Z,99562.20
2022-08-26T06:49:33.288Z,99563.39
2022-08-26T06:52:02.274Z,99560.30
2022-08-26T06:54:30.939Z,99561.88
2022-08-26T06:57:00.537Z,99560.05
2022-08-26T06:59:30.522Z,99562.84
2022-08-26T07:01:59.171Z,99563.91
2022-08-26T07:04:28.874Z,99562.30
2022-08-26T07:06:57.497Z,99560.33
2022-08-26T07:09:28.620Z,99562.50
2022-08-26T07:11:57.182Z,99558.74
2022-08-26T07:14:26.176Z,99556.62
2022-08-26T07:16:55.707Z,99557.89
2022-08-26T07:19:27.681Z,99563.45
2022-08-26T07:22:04.309Z,99562.71
2022-08-26T07:24:35.376Z,99562.39
2022-08-26T07:27:05.646Z,99568.69
2022-08-26T07:29:35.377Z,99559.82
2022-08-26T07:32:05.311Z,99566.63
2022-08-26T07:34:34.457Z,99564.20
2022-08-26T07:37:03.358Z,99562.20
2022-08-26T07:39:32.792Z,99561.79
2022-08-26T07:42:07.417Z,99562.42
2022-08-26T07:44:37.116Z,99559.52
2022-08-26T07:47:10.558Z,99555.84
2022-08-26T07:49:57.250Z,99552.30
2022-08-26T07:52:28.774Z,99551.98
2022-08-26T07:55:00.005Z,99549.17
2022-08-26T07:57:29.802Z,99549.78
2022-08-26T07:59:58.536Z,99553.38
2022-08-26T08:02:29.823Z,99554.85
2022-08-26T08:04:59.365Z,99555.79
2022-08-26T08:07:38.266Z,99556.38
2022-08-26T08:10:11.577Z,99554.52
2022-08-26T08:12:40.592Z,99551.42
2022-08-26T08:15:13.096Z,99551.92
2022-08-26T08:17:55.663Z,99553.67
2022-08-26T08:20:29.301Z,99551.15
2022-08-26T08:22:58.726Z,99553.35
2022-08-26T08:25:27.238Z,99551.27
2022-08-26T08:27:55.852Z,99549.86
2022-08-26T08:30:25.750Z,99547.52
2022-08-26T08:32:55.357Z,99547.95
2022-08-26T08:35:25.887Z,99544.57
2022-08-26T08:37:54.949Z,99545.39
2022-08-26T08:40:26.403Z,99539.02
2022-08-26T08:43:01.097Z,99532.89
2022-08-26T08:45:37.251Z,99531.75
2022-08-26T08:48:13.115Z,99527.40
2022-08-26T08:50:45.930Z,99527.41
2022-08-26T08:53:17.810Z,99524.11
2022-08-26T08:55:58.077Z,99518.64
2022-08-26T08:58:35.400Z,99516.40
2022-08-26T09:01:11.810Z,99514.52
2022-08-26T09:03:50.938Z,99515.38
2022-08-26T09:06:20.578Z,99512.15
2022-08-26T09:08:51.618Z,99511.62
2022-08-26T09:11:20.597Z,99510.02
2022-08-26T09:13:51.733Z,99508.84
2022-08-26T09:16:24.740Z,99506.27
2022-08-26T09:19:14.864Z,99509.43
2022-08-26T09:21:55.667Z,99508.72
2022-08-26T09:24:28.569Z,99509.81
2022-08-26T09:26:58.445Z,99508.66
2022-08-26T09:29:28.949Z,99504.08
2022-08-26T09:32:18.753Z,99502.11
2022-08-26T09:34:58.450Z,99501.17
2022-08-26T09:37:39.135Z,99497.56
2022-08-26T09:40:18.376Z,99499.71
2022-08-26T09:43:07.677Z,99494.80
2022-08-26T09:45:37.124Z,99496.86
2022-08-26T09:48:08.358Z,99495.00
2022-08-26T09:50:39.289Z,99491.56
2022-08-26T09:53:17.425Z,99489.01
2022-08-26T09:55:54.469Z,99482.91
2022-08-26T09:58:37.798Z,99481.06
2022-08-26T10:01:13.957Z,99484.87
2022-08-26T10:03:44.437Z,99475.52
2022-08-26T10:06:26.118Z,99473.41
2022-08-26T10:08:58.397Z,99472.11
2022-08-26T10:11:34.381Z,99467.88
2022-08-26T10:14:17.030Z,99463.79
2022-08-26T10:16:52.511Z,99462.59
2022-08-26T10:19:40.187Z,99462.73
2022-08-26T10:22:23.053Z,99460.20
2022-08-26T10:24:57.343Z,99459.01
2022-08-26T10:27:40.585Z,99454.90
2022-08-26T10:30:24.141Z,99449.75
2022-08-26T10:32:57.991Z,99451.98
2022-08-26T10:35:27.300Z,99451.94
2022-08-26T10:38:03.362Z,99449.10
2022-08-26T10:40:44.880Z,99446.45
2022-08-26T10:43:21.054Z,99444.42
2022-08-26T10:45:53.046Z,99437.83
2022-08-26T10:48:35.617Z,99438.38
2022-08-26T10:51:05.763Z,99435.59
2022-08-26T10:53:44.886Z,99428.11
2022-08-26T10:56:24.669Z,99429.27
2022-08-26T10:59:03.882Z,99425.44
2022-08-26T11:01:42.992Z,99426.44
2022-08-26T11:04:23.537Z,99417.89
2022-08-26T11:07:24.899Z,99413.83
2022-08-26T11:09:53.448Z,99408.36
2022-08-26T11:12:57.223Z,99400.36
2022-08-26T11:16:09.899Z,99404.86
2022-08-26T11:18:48.061Z,99396.77
2022-08-26T11:21:45.134Z,99392.05
2022-08-26T11:25:00.097Z,99386.23
2022-08-26T11:28:02.976Z,99382.61
2022-08-26T11:30:43.993Z,99375.02
2022-08-26T11:33:59.470Z,99373.48
2022-08-26T11:36:42.523Z,99370.62
2022-08-26T11:39:19.665Z,99369.77
2022-08-26T11:41:52.755Z,99368.52
2022-08-26T11:44:24.463Z,99364.30
2022-08-26T11:46:58.899Z,99363.15
2022-08-26T11:49:29.229Z,99355.69
2022-08-26T11:52:15.548Z,99356.36
2022-08-26T11:55:02.613Z,99355.08
2022-08-26T11:57:34.299Z,99355.70
2022-08-26T12:00:07.417Z,99353.33
2022-08-26T12:02:40.942Z,99348.95
2022-08-26T12:05:12.292Z,99348.19
2022-08-26T12:07:42.631Z,99346.85
2022-08-26T12:10:24.500Z,99344.09
2022-08-26T12:13:00.079Z,99339.60
2022-08-26T12:15:31.385Z,99335.50
2022-08-26T12:18:15.750Z,99331.59
2022-08-26T12:20:47.944Z,99327.96
2022-08-26T12:23:25.027Z,99328.95
2022-08-26T12:26:05.224Z,99326.35
2022-08-26T12:28:41.176Z,99322.23
2022-08-26T12:31:10.042Z,99320.71
2022-08-26T12:33:38.988Z,99315.55
2022-08-26T12:36:08.154Z,99313.49
2022-08-26T12:38:39.866Z,99311.48
2022-08-26T12:41:08.555Z,99312.00
2022-08-26T12:43:40.148Z,99311.71
2022-08-26T12:46:11.032Z,99314.73
2022-08-26T12:48:44.177Z,99316.35
2022-08-26T12:51:23.029Z,99315.04
2022-08-26T12:53:52.427Z,99311.20
2022-08-26T12:56:27.407Z,99313.05
2022-08-26T12:59:10.295Z,99312.55
2022-08-26T13:01:44.104Z,99308.41
2022-08-26T13:04:38.151Z,99304.98
2022-08-26T13:07:29.763Z,99299.27
2022-08-26T13:09:58.407Z,99297.10
2022-08-26T13:12:30.436Z,99291.73
2022-08-26T13:15:00.868Z,99288.99
2022-08-26T13:17:30.644Z,99284.83
2022-08-26T13:20:03.819Z,99283.38
2022-08-26T13:22:33.336Z,99281.64
2022-08-26T13:25:02.080Z,99279.30
2022-08-26T13:27:30.886Z,99280.57
2022-08-26T13:30:00.961Z,99280.15
2022-08-26T13:32:31.145Z,99279.33
2022-08-26T13:35:00.004Z,99271.20
2022-08-26T13:37:35.609Z,99269.39
2022-08-26T13:40:06.604Z,99270.48
2022-08-26T13:42:35.482Z,99275.10
2022-08-26T13:45:06.441Z,99270.97
2022-08-26T13:47:37.840Z,99269.58
2022-08-26T13:50:07.866Z,99269.61
2022-08-26T13:52:36.710Z,99268.50
2022-08-26T13:55:09.300Z,99268.04
2022-08-26T13:57:38.152Z,99263.09
2022-08-26T14:00:10.981Z,99263.14
2022-08-26T14:02:40.230Z,99261.36
2022-08-26T14:05:09.913Z,99261.95
2022-08-26T14:07:41.529Z,99262.75
2022-08-26T14:10:12.124Z,99260.09
2022-08-26T14:12:40.699Z,99258.79
2022-08-26T14:15:11.761Z,99259.27
2022-08-26T14:17:40.411Z,99252.66
2022-08-26T14:20:13.919Z,99252.65
2022-08-26T14:23:03.406Z,99253.80
2022-08-26T14:25:33.335Z,99253.34
2022-08-26T14:28:01.915Z,99249.82
2022-08-26T14:30:34.272Z,99251.71
2022-08-26T14:33:03.004Z,99245.61
2022-08-26T14:35:32.011Z,99241.58
2022-08-26T14:38:00.500Z,99242.40
2022-08-26T14:40:31.159Z,99240.97
2022-08-26T14:43:00.576Z,99237.49
2022-08-26T14:45:29.448Z,99237.58
2022-08-26T14:47:59.194Z,99237.14
2022-08-26T14:50:27.799Z,99229.89
2022-08-26T14:53:15.033Z,99229.86
2022-08-26T14:55:44.326Z,99232.48
2022-08-26T14:58:13.671Z,99232.23
2022-08-26T15:00:44.530Z,99234.95
2022-08-26T15:05:48.882Z,99237.64
2022-08-26T15:08:20.155Z,99237.29
2022-08-26T15:10:50.519Z,99241.77
2022-08-26T15:13:19.703Z,99238.49
2022-08-26T15:15:52.039Z,99245.48
2022-08-26T15:18:21.723Z,99245.73
2022-08-26T15:20:52.062Z,99245.97
2022-08-26T15:23:20.788Z,99248.34
2022-08-26T15:25:49.880Z,99254.79
2022-08-26T15:28:18.500Z,99248.27
2022-08-26T15:30:47.309Z,99250.23
2022-08-26T15:33:16.099Z,99250.07
2022-08-26T15:35:44.783Z,99247.85
2022-08-26T15:38:13.721Z,99248.58
2022-08-26T15:40:43.521Z,99242.13
2022-08-26T15:43:27.627Z,99240.24
2022-08-26T15:45:58.231Z,99235.63
2022-08-26T15:48:27.875Z,99240.91
2022-08-26T15:51:00.035Z,99240.02
2022-08-26T15:53:32.447Z,99231.45
2022-08-26T15:56:03.703Z,99231.02
2022-08-26T15:58:33.630Z,99228.25
2022-08-26T16:01:05.942Z,99227.72
2022-08-26T16:03:35.696Z,99229.23
2022-08-26T16:06:06.288Z,99228.61
2022-08-26T16:08:36.697Z,99227.77
2022-08-26T16:11:06.963Z,99227.27
2022-08-26T16:13:40.120Z,99230.27
2022-08-26T16:16:09.997Z,99225.66
2022-08-26T16:18:39.085Z,99225.30
2022-08-26T16:21:13.679Z,99218.05
2022-08-26T16:23:45.111Z,99220.23
2022-08-26T16:26:14.918Z,99217.89
2022-08-26T16:28:43.968Z,99216.35
2022-08-26T16:31:13.264Z,99211.17
2022-08-26T16:33:42.073Z,99206.25
2022-08-26T16:36:11.938Z,99207.90
2022-08-26T16:38:41.693Z,99203.48
2022-08-26T16:41:10.425Z,99203.89
2022-08-26T16:43:39.120Z,99200.96
2022-08-26T16:46:10.779Z,99200.82
2022-08-26T16:48:39.667Z,99195.51
2022-08-26T16:51:12.800Z,99192.52
2022-08-26T16:53:41.820Z,99191.05
2022-08-26T16:56:14.290Z,99189.09
2022-08-26T16:58:43.174Z,99192.62
2022-08-26T17:01:11.874Z,99198.15
2022-08-26T17:03:40.738Z,99193.73
2022-08-26T17:06:11.006Z,99193.43
2022-08-26T17:08:40.567Z,99191.22
2022-08-26T17:11:09.505Z,99188.47
2022-08-26T17:13:38.912Z,99182.77
2022-08-26T17:16:09.964Z,99181.81
2022-08-26T17:18:38.929Z,99182.84
2022-08-26T17:21:10.699Z,99183.03
2022-08-26T17:23:40.953Z,99180.84
2022-08-26T17:26:11.401Z,99181.29
2022-08-26T17:28:40.173Z,99176.23
2022-08-26T17:31:10.915Z,99179.58
2022-08-26T17:33:40.435Z,99181.25
2022-08-26T17:36:09.803Z,99180.33
2022-08-26T17:38:39.039Z,99178.04
2022-08-26T17:41:09.520Z,99177.43
2022-08-26T17:43:40.079Z,99178.00
2022-08-26T17:46:11.282Z,99178.41
2022-08-26T17:48:41.109Z,99178.13
2022-08-26T17:51:11.584Z,99176.39
2022-08-26T17:53:40.901Z,99181.24
2022-08-26T17:56:11.000Z,99180.08
2022-08-26T17:58:40.411Z,99183.59
2022-08-26T18:01:08.912Z,99183.05
2022-08-26T18:03:37.667Z,99190.08
2022-08-26T18:06:11.498Z,99193.95
2022-08-26T18:08:41.157Z,99204.15
2022-08-26T18:11:12.245Z,99205.52
2022-08-26T18:13:46.058Z,99208.88
2022-08-26T18:16:18.155Z,99206.64
2022-08-26T18:18:47.937Z,99205.25
2022-08-26T18:21:19.210Z,99203.73
2022-08-26T18:23:48.632Z,99203.20
2022-08-26T18:26:19.915Z,99205.13
2022-08-26T18:28:49.245Z,99206.41
2022-08-26T18:31:18.962Z,99214.27
2022-08-26T18:33:49.516Z,99216.52
2022-08-26T18:36:21.971Z,99216.77
2022-08-26T18:38:52.637Z,99218.67
2022-08-26T18:41:24.228Z,99217.73
2022-08-26T18:43:54.745Z,99213.61
2022-08-26T18:46:26.116Z,99211.86
2022-08-26T18:48:57.312Z,99205.38
2022-08-26T18:51:29.487Z,99207.95
2022-08-26T18:54:01.137Z,99205.44
2022-08-26T18:56:31.917Z,99206.51
2022-08-26T18:59:01.424Z,99204.52
2022-08-26T19:01:32.694Z,99205.67
2022-08-26T19:04:04.742Z,99206.35
2022-08-26T19:06:37.802Z,99207.73
2022-08-26T19:09:09.966Z,99212.10
2022-08-26T19:11:43.992Z,99213.70
2022-08-26T19:14:16.970Z,99217.42
2022-08-26T19:16:51.824Z,99220.48
2022-08-26T19:19:24.239Z,99224.17
2022-08-26T19:21:56.936Z,99230.38
2022-08-26T19:24:30.601Z,99237.14
2022-08-26T19:27:01.272Z,99240.20
2022-08-26T19:29:32.836Z,99243.96
2022-08-26T19:32:12.849Z,99242.70
2022-08-26T19:34:45.443Z,99250.80
2022-08-26T19:37:14.331Z,99246.05
2022-08-26T19:39:43.179Z,99248.41
2022-08-26T19:42:11.789Z,99249.31
2022-08-26T19:44:58.523Z,99246.20
2022-08-26T19:47:27.156Z,99245.63
2022-08-26T19:49:56.279Z,99248.21
2022-08-26T19:52:29.912Z,99248.91
2022-08-26T19:54:59.973Z,99249.23
2022-08-26T19:57:28.681Z,99254.80
2022-08-26T19:59:57.310Z,99252.60
2022-08-26T20:02:25.964Z,99249.82
2022-08-26T20:04:55.405Z,99246.73
2022-08-26T20:07:23.812Z,99250.66
2022-08-26T20:09:52.487Z,99254.49
2022-08-26T20:12:21.023Z,99261.41
2022-08-26T20:14:49.519Z,99265.23
2022-08-26T20:17:17.992Z,99271.05
2022-08-26T20:20:01.583Z,99271.05
2022-08-26T20:22:30.618Z,99275.80
2022-08-26T20:24:59.241Z,99281.99
2022-08-26T20:27:38.097Z,99284.05
2022-08-26T20:30:10.265Z,99288.27
2022-08-26T20:32:39.711Z,99282.36
2022-08-26T20:35:11.835Z,99281.45
2022-08-26T20:37:41.048Z,99280.73
2022-08-26T20:40:13.187Z,99282.14
2022-08-26T20:42:41.932Z,99281.63
2022-08-26T20:45:11.566Z,99284.27
2022-08-26T20:47:40.744Z,99284.58
2022-08-26T20:50:09.978Z,99284.73
2022-08-26T20:52:38.884Z,99285.13
2022-08-26T20:55:09.164Z,99282.02
2022-08-26T20:57:37.671Z,99280.56
2022-08-26T21:00:08.274Z,99277.11
2022-08-26T21:02:36.933Z,99267.36
2022-08-26T21:05:07.741Z,99262.66
2022-08-26T21:07:36.260Z,99255.40
2022-08-26T21:10:06.437Z,99248.88
2022-08-26T21:12:35.073Z,99241.98
2022-08-26T21:15:04.131Z,99236.91
2022-08-26T21:17:33.606Z,99233.20
2022-08-26T21:20:02.960Z,99225.63
2022-08-26T21:22:31.717Z,99224.06
2022-08-26T21:25:00.933Z,99225.44
2022-08-26T21:27:29.584Z,99231.75
2022-08-26T21:29:58.346Z,99230.69
2022-08-26T21:32:27.343Z,99235.28
2022-08-26T21:34:57.070Z,99231.98
2022-08-26T21:37:27.419Z,99231.03
2022-08-26T21:39:57.374Z,99229.73
2022-08-26T21:42:26.723Z,99228.23
2022-08-26T21:44:55.359Z,99224.84
2022-08-26T21:47:24.317Z,99220.48
2022-08-26T21:49:53.670Z,99225.39
2022-08-26T21:52:22.274Z,99228.00
2022-08-26T21:54:50.915Z,99236.06
2022-08-26T21:57:19.966Z,99239.77
2022-08-26T21:59:48.604Z,99237.80
2022-08-26T22:02:17.162Z,99239.01
2022-08-26T22:04:48.828Z,99239.55
2022-08-26T22:07:19.473Z,99239.68
2022-08-26T22:09:49.135Z,99236.55
2022-08-26T22:12:18.519Z,99237.66
2022-08-26T22:14:47.377Z,99240.39
2022-08-26T22:17:16.399Z,99237.27
2022-08-26T22:19:46.383Z,99235.48
2022-08-26T22:22:15.912Z,99239.27
2022-08-26T22:24:44.622Z,99231.42
2022-08-26T22:27:13.648Z,99223.40
2022-08-26T22:29:42.421Z,99220.86
2022-08-26T22:32:11.077Z,99218.75
2022-08-26T22:34:39.965Z,99212.70
2022-08-26T22:37:08.460Z,99216.52
2022-08-26T22:39:37.632Z,99214.33
2022-08-26T22:42:06.593Z,99215.63
2022-08-26T22:44:36.955Z,99213.17
2022-08-26T22:47:06.069Z,99210.50
2022-08-26T22:49:34.789Z,99210.02
2022-08-26T22:52:04.039Z,99202.25
2022-08-26T22:54:32.637Z,99199.05
2022-08-26T22:57:01.342Z,99198.76
2022-08-26T22:59:50.045Z,99199.89
2022-08-26T23:02:19.166Z,99198.83
2022-08-26T23:04:49.375Z,99198.04
2022-08-26T23:07:18.065Z,99195.90
2022-08-26T23:09:46.673Z,99193.16
2022-08-26T23:12:15.154Z,99192.93
2022-08-26T23:14:43.736Z,99185.55
2022-08-26T23:17:13.745Z,99184.70
2022-08-26T23:19:42.898Z,99178.11
2022-08-26T23:22:11.739Z,99177.02
2022-08-26T23:24:40.390Z,99176.25
2022-08-26T23:27:09.138Z,99175.73
2022-08-26T23:29:39.133Z,99172.92
2022-08-26T23:32:07.839Z,99172.91
2022-08-26T23:34:54.615Z,99176.24
2022-08-26T23:37:23.334Z,99180.76
2022-08-26T23:39:54.566Z,99182.62
2022-08-26T23:42:23.249Z,99185.80
2022-08-26T23:44:51.958Z,99182.18
2022-08-26T23:47:20.575Z,99181.03
2022-08-26T23:49:49.207Z,99185.32
2022-08-26T23:52:35.771Z,99185.11
2022-08-26T23:55:05.866Z,99181.80
2022-08-26T23:57:37.773Z,99184.98
